Time;durP1;ratioP1;P1;durP2;ratioP2;P2;SDS_P1;SDS_P2;PMS_P1;PMS_P2;Temp;Humidity;BMP_temperature;BMP_pressure;BME280_temperature;BME280_humidity;BME280_pressure;Samples;Min_cycle;Max_cycle;Signal;HPM_P1;HPM_P2
2022/08/05 00:00:19;;;;;;;39.13;16.70;;;17.40;98.70;;;;;;5028707;28;20465;-72
2022/08/05 00:02:45;;;;;;;39.53;16.75;;;17.40;98.90;;;;;;5022837;28;20037;-72
2022/08/05 00:05:11;;;;;;;43.40;16.67;;;17.30;98.80;;;;;;5026818;28;20037;-70
2022/08/05 00:07:36;;;;;;;40.53;16.23;;;17.30;98.90;;;;;;5019363;28;20041;-70
2022/08/05 00:10:03;;;;;;;44.15;16.60;;;17.30;98.70;;;;;;5019400;28;20025;-70
2022/08/05 00:12:28;;;;;;;39.92;16.35;;;17.30;99.00;;;;;;5018898;28;20029;-70
2022/08/05 00:14:54;;;;;;;46.75;16.75;;;17.20;98.80;;;;;;5019760;28;20374;-70
2022/08/05 00:17:19;;;;;;;40.95;15.75;;;17.30;98.90;;;;;;5023388;28;20491;-70
2022/08/05 00:19:45;;;;;;;35.45;15.40;;;17.20;98.90;;;;;;5020537;28;20053;-70
2022/08/05 00:22:10;;;;;;;42.05;15.20;;;17.20;98.90;;;;;;5028479;28;20029;-70
2022/08/05 00:24:36;;;;;;;36.58;16.30;;;17.30;99.00;;;;;;5024700;28;20489;-70
2022/08/05 00:27:02;;;;;;;33.45;14.60;;;17.30;98.90;;;;;;5026055;28;20030;-71
2022/08/05 00:29:27;;;;;;;33.58;14.38;;;17.30;98.80;;;;;;5017558;28;20022;-70
2022/08/05 00:31:54;;;;;;;32.22;14.15;;;17.20;98.80;;;;;;5025333;28;20148;-70
2022/08/05 00:34:19;;;;;;;28.10;13.00;;;17.10;98.60;;;;;;5019828;28;20494;-70
2022/08/05 00:36:45;;;;;;;32.83;14.40;;;17.10;98.70;;;;;;5028131;28;20053;-70
2022/08/05 00:39:11;;;;;;;34.47;13.70;;;17.10;98.70;;;;;;5025852;28;20057;-70
2022/08/05 00:41:37;;;;;;;38.70;13.35;;;17.10;98.60;;;;;;5027775;28;20179;-70
2022/08/05 00:44:03;;;;;;;27.63;12.68;;;17.10;98.50;;;;;;5027929;28;20036;-70
2022/08/05 00:46:29;;;;;;;27.83;12.55;;;17.10;98.50;;;;;;5024153;28;20137;-70
2022/08/05 00:48:55;;;;;;;26.65;12.25;;;17.10;98.30;;;;;;5021989;28;20160;-70
2022/08/05 00:51:21;;;;;;;20.23;10.05;;;17.20;98.10;;;;;;5027632;28;20465;-70
2022/08/05 00:53:47;;;;;;;21.00;9.88;;;17.10;98.00;;;;;;5029297;28;20643;-70
2022/08/05 00:56:15;;;;;;;21.50;10.27;;;17.20;98.10;;;;;;5031086;28;20037;-70
2022/08/05 00:58:41;;;;;;;21.60;10.70;;;17.20;97.90;;;;;;5024963;28;20525;-70
2022/08/05 01:01:06;;;;;;;16.92;9.52;;;17.20;97.70;;;;;;5022542;28;20049;-70
2022/08/05 01:03:32;;;;;;;18.50;9.38;;;17.20;97.80;;;;;;5027125;28;20163;-70
2022/08/05 01:05:57;;;;;;;18.73;9.02;;;17.10;97.60;;;;;;5027356;28;20068;-70
2022/08/05 01:08:23;;;;;;;19.40;9.00;;;17.20;97.70;;;;;;5026011;28;20090;-70
2022/08/05 01:10:55;;;;;;;15.95;8.60;;;17.10;97.40;;;;;;5026201;28;20029;-70
2022/08/05 01:13:40;;;;;;;14.02;7.22;;;17.20;97.30;;;;;;5026701;28;20037;-70
2022/08/05 01:16:11;;;;;;;14.18;7.38;;;17.20;97.30;;;;;;5027434;28;20069;-70
2022/08/05 01:18:41;;;;;;;11.68;7.22;;;17.20;97.50;;;;;;5025731;28;20018;-70
2022/08/05 01:21:32;;;;;;;13.88;7.07;;;17.20;97.50;;;;;;5033006;28;20036;-70
2022/08/05 01:24:12;;;;;;;12.48;7.05;;;17.10;97.40;;;;;;5029489;28;20025;-70
2022/08/05 01:26:45;;;;;;;17.08;7.72;;;17.20;97.70;;;;;;5029603;28;20477;-70
2022/08/05 01:29:23;;;;;;;16.70;7.38;;;17.10;97.70;;;;;;5027394;28;20033;-70
2022/08/05 01:31:53;;;;;;;12.57;6.18;;;17.10;97.60;;;;;;5023601;28;20076;-70
2022/08/05 01:34:18;;;;;;;14.13;6.50;;;17.10;97.50;;;;;;5024568;28;20033;-70
2022/08/05 01:36:49;;;;;;;12.98;6.47;;;17.00;97.60;;;;;;5025925;28;20103;-70
2022/08/05 01:39:15;;;;;;;;;;;17.00;97.50;;;;;;5027445;28;20029;-70
2022/08/05 01:41:43;;;;;;;11.40;5.35;;;17.00;97.60;;;;;;5028006;28;19967;-70
2022/08/05 01:44:10;;;;;;;10.07;5.70;;;16.90;97.20;;;;;;5033333;28;20480;-70
2022/08/05 01:46:38;;;;;;;11.20;5.28;;;17.00;97.30;;;;;;5026166;28;20092;-70
2022/08/05 01:49:04;;;;;;;8.43;4.80;;;16.90;97.30;;;;;;5031183;28;20369;-70
2022/08/05 01:51:34;;;;;;;11.80;5.20;;;16.90;97.00;;;;;;5027930;28;20033;-70
2022/08/05 01:54:04;;;;;;;10.18;5.07;;;16.90;97.20;;;;;;5023620;28;20026;-70
2022/08/05 01:56:32;;;;;;;11.75;5.45;;;16.90;97.10;;;;;;5029537;28;20377;-70
2022/08/05 01:58:59;;;;;;;9.93;5.70;;;16.90;97.10;;;;;;5029927;28;20033;-70
2022/08/05 02:01:27;;;;;;;10.13;5.18;;;16.90;97.20;;;;;;5027581;28;20045;-70
2022/08/05 02:03:55;;;;;;;9.85;5.10;;;16.80;97.10;;;;;;5029989;28;20036;-70
2022/08/05 02:06:21;;;;;;;9.73;4.80;;;16.80;97.20;;;;;;5025677;28;20096;-70
2022/08/05 02:08:46;;;;;;;10.55;5.25;;;16.70;97.20;;;;;;5020118;28;20444;-70
2022/08/05 02:11:16;;;;;;;9.88;4.50;;;16.70;97.10;;;;;;5029244;28;20022;-70
2022/08/05 02:13:54;;;;;;;7.78;4.90;;;16.80;96.90;;;;;;5030921;28;20358;-70
2022/08/05 02:16:55;;;;;;;6.45;3.63;;;16.80;96.90;;;;;;5026976;28;20531;-70
2022/08/05 02:19:23;;;;;;;;;;;16.80;96.30;;;;;;5028741;28;20037;-70
2022/08/05 02:21:58;;;;;;;7.68;3.70;;;16.80;96.00;;;;;;5031487;28;19913;-70
2022/08/05 02:24:29;;;;;;;9.25;4.50;;;16.90;96.00;;;;;;5029275;28;20030;-70
2022/08/05 02:27:00;;;;;;;9.90;4.70;;;16.90;96.50;;;;;;5030998;28;20037;-70
2022/08/05 02:29:26;;;;;;;;;;;16.80;96.90;;;;;;5032287;28;20072;-70
2022/08/05 02:31:56;;;;;;;14.13;5.18;;;16.70;97.20;;;;;;5027769;28;20662;-70
2022/08/05 02:34:22;;;;;;;9.52;5.20;;;16.70;97.50;;;;;;5030411;28;20037;-70
2022/08/05 02:36:52;;;;;;;14.30;5.60;;;16.50;97.60;;;;;;5017015;28;20592;-71
2022/08/05 02:39:21;;;;;;;11.30;5.60;;;16.60;97.90;;;;;;5027873;28;20037;-70
2022/08/05 02:41:48;;;;;;;10.80;5.68;;;16.60;98.10;;;;;;5025568;28;20467;-70
2022/08/05 02:44:14;;;;;;;16.13;6.03;;;16.60;98.20;;;;;;5025703;28;20021;-71
2022/08/05 02:46:42;;;;;;;13.10;5.60;;;16.60;98.50;;;;;;5022803;28;20031;-71
2022/08/05 02:49:09;;;;;;;12.77;6.10;;;16.50;98.40;;;;;;5028127;28;21599;-71
2022/08/05 02:51:36;;;;;;;10.48;5.47;;;16.50;98.60;;;;;;5029044;28;20079;-71
2022/08/05 02:54:03;;;;;;;13.85;5.95;;;16.50;98.60;;;;;;5027084;28;20471;-71
2022/08/05 02:56:29;;;;;;;12.23;6.43;;;16.50;98.70;;;;;;5025921;28;20038;-70
2022/08/05 02:58:56;;;;;;;11.20;5.53;;;16.40;98.70;;;;;;5027563;28;20047;-71
2022/08/05 03:01:27;;;;;;;12.70;5.93;;;16.40;98.70;;;;;;5023920;28;20053;-70
2022/08/05 03:03:57;;;;;;;12.48;6.03;;;16.30;98.80;;;;;;5024360;28;20025;-70
2022/08/05 03:06:22;;;;;;;11.45;5.30;;;16.20;98.70;;;;;;5024784;28;20037;-70
2022/08/05 03:08:50;;;;;;;11.52;5.82;;;16.30;98.80;;;;;;5024658;28;20021;-71
2022/08/05 03:11:21;;;;;;;15.77;6.60;;;16.20;98.80;;;;;;5026617;28;20128;-70
2022/08/05 03:13:47;;;;;;;;;;;16.10;98.80;;;;;;5025872;28;20110;-70
2022/08/05 03:16:13;;;;;;;15.15;6.45;;;16.10;98.90;;;;;;5025235;28;19921;-70
2022/08/05 03:18:38;;;;;;;11.55;6.70;;;16.20;99.00;;;;;;5029848;28;20027;-70
2022/08/05 03:21:04;;;;;;;12.82;7.40;;;16.00;98.80;;;;;;5019925;28;20087;-70
2022/08/05 03:23:30;;;;;;;15.85;7.82;;;16.10;98.70;;;;;;5026124;28;20033;-70
2022/08/05 03:25:55;;;;;;;15.68;7.10;;;16.10;98.70;;;;;;5016442;28;20104;-70
2022/08/05 03:28:21;;;;;;;16.13;8.45;;;16.10;98.70;;;;;;5031296;28;20064;-70
2022/08/05 03:30:48;;;;;;;14.20;7.57;;;16.10;98.70;;;;;;5029578;28;20037;-70
2022/08/05 03:33:15;;;;;;;17.00;7.95;;;16.00;98.70;;;;;;5027723;28;20056;-70
2022/08/05 03:35:40;;;;;;;17.70;7.72;;;16.00;98.60;;;;;;5026657;28;20590;-70
2022/08/05 03:38:06;;;;;;;20.35;8.10;;;16.00;98.70;;;;;;5026208;28;20045;-70
2022/08/05 03:40:31;;;;;;;13.77;8.20;;;16.00;98.70;;;;;;5028150;28;20108;-70
2022/08/05 03:42:57;;;;;;;15.30;7.65;;;15.90;98.70;;;;;;5025491;28;20087;-70
2022/08/05 03:45:22;;;;;;;17.15;8.05;;;15.90;98.90;;;;;;5027833;28;20049;-70
2022/08/05 03:47:48;;;;;;;13.05;7.38;;;15.90;98.90;;;;;;5026242;28;20075;-70
2022/08/05 03:50:14;;;;;;;16.85;7.80;;;15.90;98.90;;;;;;5027828;28;20029;-70
2022/08/05 03:52:55;;;;;;;14.50;7.80;;;15.80;99.00;;;;;;5030590;28;20105;-70
2022/08/05 03:55:31;;;;;;;15.35;8.55;;;15.90;99.10;;;;;;5026174;28;20144;-70
2022/08/05 03:57:59;;;;;;;16.42;8.27;;;15.80;99.00;;;;;;5027739;28;20021;-70
2022/08/05 04:00:30;;;;;;;17.83;8.50;;;15.80;99.10;;;;;;5027313;28;20037;-70
2022/08/05 04:02:58;;;;;;;15.82;8.52;;;15.80;99.10;;;;;;5018690;28;20485;-70
2022/08/05 04:05:25;;;;;;;14.70;8.32;;;15.90;99.30;;;;;;5024035;28;20384;-70
2022/08/05 04:07:51;;;;;;;17.50;8.50;;;15.90;99.30;;;;;;5025125;28;20037;-70
2022/08/05 04:10:17;;;;;;;17.95;9.45;;;15.90;99.30;;;;;;5018896;28;20034;-70
2022/08/05 04:12:44;;;;;;;12.48;8.57;;;15.80;99.20;;;;;;5027791;28;20556;-70
2022/08/05 04:15:10;;;;;;;16.65;9.00;;;15.80;99.30;;;;;;5027238;28;20029;-70
2022/08/05 04:17:36;;;;;;;14.70;9.23;;;15.80;99.30;;;;;;5023148;28;20033;-70
2022/08/05 04:20:02;;;;;;;23.75;9.77;;;15.80;99.30;;;;;;5028140;28;20044;-70
2022/08/05 04:22:28;;;;;;;18.15;9.20;;;15.80;99.50;;;;;;5025729;28;20033;-70
2022/08/05 04:24:53;;;;;;;17.20;9.07;;;15.80;99.30;;;;;;5020528;28;20033;-70
2022/08/05 04:27:19;;;;;;;13.77;8.25;;;15.80;99.30;;;;;;5027571;28;20025;-70
2022/08/05 04:29:44;;;;;;;16.63;9.00;;;15.80;99.30;;;;;;5025841;28;20037;-70
2022/08/05 04:32:10;;;;;;;17.42;8.57;;;15.80;99.20;;;;;;5025085;28;20043;-70
2022/08/05 04:34:36;;;;;;;21.45;9.68;;;15.80;99.20;;;;;;5025407;28;20034;-70
2022/08/05 04:37:01;;;;;;;18.50;9.07;;;15.80;99.20;;;;;;5027259;28;20082;-70
2022/08/05 04:39:27;;;;;;;15.48;9.30;;;15.90;99.30;;;;;;5022381;28;20723;-70
2022/08/05 04:41:52;;;;;;;16.42;9.20;;;15.90;99.30;;;;;;5017233;28;20132;-70
2022/08/05 04:44:18;;;;;;;18.08;9.25;;;15.90;99.20;;;;;;5018393;28;20030;-70
2022/08/05 04:46:44;;;;;;;18.25;8.90;;;15.90;99.30;;;;;;5019203;28;20087;-70
2022/08/05 04:49:09;;;;;;;19.48;8.63;;;15.80;99.00;;;;;;5028629;28;20030;-70
2022/08/05 04:51:35;;;;;;;15.85;8.70;;;15.80;99.10;;;;;;5028787;28;20030;-70
2022/08/05 04:54:00;;;;;;;18.17;8.30;;;15.90;99.00;;;;;;5024150;28;20029;-70
2022/08/05 04:56:26;;;;;;;17.05;8.85;;;16.00;99.10;;;;;;5014573;28;20366;-70
2022/08/05 04:58:51;;;;;;;19.80;8.82;;;16.00;99.00;;;;;;5026698;28;20437;-70
2022/08/05 05:01:17;;;;;;;14.20;8.52;;;16.00;99.00;;;;;;5025617;28;20102;-70
2022/08/05 05:03:43;;;;;;;17.02;8.93;;;16.10;99.00;;;;;;5018623;28;20029;-70
2022/08/05 05:06:10;;;;;;;16.55;8.98;;;16.10;99.00;;;;;;5025626;28;20037;-70
2022/08/05 05:08:36;;;;;;;18.65;9.57;;;16.20;99.20;;;;;;5025891;28;20022;-70
2022/08/05 05:11:02;;;;;;;17.05;9.35;;;16.30;99.20;;;;;;5027224;28;20121;-70
2022/08/05 05:13:27;;;;;;;15.45;8.73;;;16.40;99.00;;;;;;5028560;28;20099;-70
2022/08/05 05:15:53;;;;;;;18.60;9.38;;;16.40;99.10;;;;;;5026126;28;20032;-70
2022/08/05 05:18:19;;;;;;;15.93;9.02;;;16.50;98.90;;;;;;5026912;28;20045;-70
2022/08/05 05:20:45;;;;;;;12.63;8.85;;;16.50;99.10;;;;;;5025205;28;20472;-70
2022/08/05 05:23:12;;;;;;;15.10;8.38;;;16.50;99.00;;;;;;5027468;28;20045;-70
2022/08/05 05:25:40;;;;;;;11.95;7.95;;;16.50;99.00;;;;;;5028420;28;20032;-70
2022/08/05 05:28:05;;;;;;;12.65;7.85;;;16.40;98.80;;;;;;5029509;28;20030;-70
2022/08/05 05:30:31;;;;;;;15.73;7.55;;;16.50;98.90;;;;;;5032044;28;20029;-70
2022/08/05 05:32:58;;;;;;;12.85;7.07;;;16.50;98.80;;;;;;5026563;28;20025;-70
2022/08/05 05:35:23;;;;;;;14.57;6.78;;;16.50;98.70;;;;;;5022785;28;20068;-70
2022/08/05 05:38:00;;;;;;;12.27;6.65;;;16.50;98.90;;;;;;5031659;28;20073;-70
2022/08/05 05:40:26;;;;;;;11.35;7.13;;;16.40;98.60;;;;;;5025996;28;20044;-70
2022/08/05 05:42:53;;;;;;;13.82;6.95;;;16.50;98.70;;;;;;5031908;28;20049;-70
2022/08/05 05:45:19;;;;;;;13.70;7.05;;;16.50;98.90;;;;;;5032925;28;20022;-70
2022/08/05 05:47:45;;;;;;;10.48;6.65;;;16.50;98.90;;;;;;5029068;28;20508;-70
2022/08/05 05:50:14;;;;;;;9.70;6.60;;;16.40;98.70;;;;;;5024307;28;20033;-70
2022/08/05 05:52:40;;;;;;;14.32;7.47;;;16.50;98.80;;;;;;5031412;28;20037;-70
2022/08/05 05:55:08;;;;;;;15.43;7.57;;;16.60;99.00;;;;;;5029149;28;20116;-70
2022/08/05 05:57:34;;;;;;;13.85;7.88;;;16.60;98.80;;;;;;5023978;28;20469;-70
2022/08/05 06:00:00;;;;;;;12.65;7.53;;;16.60;99.00;;;;;;5023708;28;20061;-70
2022/08/05 06:02:26;;;;;;;11.30;7.47;;;16.70;98.90;;;;;;5027685;28;20072;-70
2022/08/05 06:04:51;;;;;;;12.73;7.10;;;16.70;98.70;;;;;;5030763;28;20033;-70
2022/08/05 06:07:17;;;;;;;11.95;6.63;;;16.70;98.60;;;;;;5021250;28;20033;-70
2022/08/05 06:09:43;;;;;;;14.18;6.70;;;16.80;98.60;;;;;;5026394;28;20025;-70
2022/08/05 06:12:08;;;;;;;13.30;6.50;;;16.90;98.50;;;;;;5030313;28;20549;-70
2022/08/05 06:14:34;;;;;;;10.07;6.07;;;16.80;98.10;;;;;;5032740;28;20088;-70
2022/08/05 06:17:00;;;;;;;12.52;5.90;;;17.00;98.20;;;;;;5023162;28;20041;-70
2022/08/05 06:19:26;;;;;;;14.68;6.22;;;17.00;97.80;;;;;;5029247;28;20472;-70
2022/08/05 06:21:51;;;;;;;10.82;5.65;;;17.20;98.00;;;;;;5022495;28;20065;-70
2022/08/05 06:24:18;;;;;;;9.70;6.18;;;17.30;97.70;;;;;;5030354;28;20464;-70
2022/08/05 06:26:44;;;;;;;10.63;6.18;;;17.50;97.80;;;;;;5029805;28;20108;-70
2022/08/05 06:29:09;;;;;;;11.73;5.90;;;17.50;97.60;;;;;;5027438;28;20104;-70
2022/08/05 06:31:36;;;;;;;8.77;5.13;;;17.70;97.50;;;;;;5026484;28;20037;-70
2022/08/05 06:34:02;;;;;;;9.20;4.97;;;17.70;96.40;;;;;;5024333;28;20453;-70
2022/08/05 06:36:28;;;;;;;8.73;5.63;;;18.00;96.80;;;;;;5020770;28;20123;-70
2022/08/05 06:38:53;;;;;;;8.57;5.13;;;18.10;95.80;;;;;;5022761;28;20378;-70
2022/08/05 06:41:20;;;;;;;10.90;4.47;;;18.10;95.90;;;;;;5028450;28;20029;-70
2022/08/05 06:43:46;;;;;;;9.68;4.78;;;18.10;95.40;;;;;;5026959;28;20448;-70
2022/08/05 06:46:12;;;;;;;8.02;4.05;;;18.00;94.10;;;;;;5022367;28;20069;-70
2022/08/05 06:48:37;;;;;;;8.23;4.32;;;17.90;94.40;;;;;;5021132;28;20083;-70
2022/08/05 06:51:04;;;;;;;7.10;4.00;;;17.90;94.60;;;;;;5022379;28;20113;-70
2022/08/05 06:53:30;;;;;;;5.95;3.55;;;17.60;94.40;;;;;;5021145;28;20092;-70
2022/08/05 06:55:59;;;;;;;11.07;4.45;;;17.50;94.80;;;;;;5024117;28;20071;-70
2022/08/05 06:58:26;;;;;;;7.25;4.18;;;17.50;95.30;;;;;;5029551;28;20040;-70
2022/08/05 07:00:52;;;;;;;8.07;4.13;;;17.50;95.40;;;;;;5020645;28;20469;-70
2022/08/05 07:03:17;;;;;;;7.72;4.13;;;17.50;95.40;;;;;;5019455;28;20037;-71
2022/08/05 07:05:44;;;;;;;8.73;3.95;;;17.40;95.50;;;;;;5018426;28;20036;-70
2022/08/05 07:08:09;;;;;;;6.57;4.13;;;17.40;95.70;;;;;;5019786;28;20037;-70
2022/08/05 07:10:35;;;;;;;8.27;4.30;;;17.30;95.90;;;;;;5020132;28;20033;-70
2022/08/05 07:18:29;;;;;;;7.18;4.63;;;17.10;96.60;;;;;;5023142;28;20075;-70
2022/08/05 07:20:54;;;;;;;6.93;4.40;;;17.10;96.70;;;;;;5020544;28;20038;-70
2022/08/05 07:23:20;;;;;;;8.85;5.28;;;17.10;97.00;;;;;;5017657;28;20052;-70
2022/08/05 07:25:45;;;;;;;9.73;4.88;;;17.00;96.80;;;;;;5020248;28;20466;-70
2022/08/05 07:28:11;;;;;;;9.20;4.50;;;17.10;96.80;;;;;;5029545;28;20068;-71
2022/08/05 07:30:37;;;;;;;9.68;5.30;;;17.10;97.10;;;;;;5024360;28;20051;-71
2022/08/05 07:33:05;;;;;;;10.27;4.72;;;17.10;97.10;;;;;;5021154;28;20080;-71
2022/08/05 07:35:31;;;;;;;9.13;4.53;;;17.10;97.30;;;;;;5014064;28;20032;-71
2022/08/05 07:37:56;;;;;;;13.07;5.90;;;17.10;97.30;;;;;;5019426;28;20495;-71
2022/08/05 07:40:22;;;;;;;11.52;5.80;;;17.20;97.40;;;;;;5023107;28;20032;-71
2022/08/05 07:42:48;;;;;;;11.98;5.75;;;17.20;97.30;;;;;;5025145;28;20037;-71
2022/08/05 07:45:14;;;;;;;10.40;5.82;;;17.30;97.50;;;;;;5026671;28;20040;-71
2022/08/05 07:47:40;;;;;;;11.23;5.50;;;17.20;97.40;;;;;;5019151;28;20030;-71
2022/08/05 07:50:07;;;;;;;8.73;5.18;;;17.10;97.30;;;;;;5025188;28;20076;-71
2022/08/05 07:52:38;;;;;;;7.75;5.55;;;17.00;97.10;;;;;;5022922;28;20396;-71
2022/08/05 07:55:04;;;;;;;9.82;5.32;;;17.10;97.20;;;;;;5020583;28;20556;-71
2022/08/05 07:57:30;;;;;;;10.02;5.00;;;17.10;97.40;;;;;;5027608;28;20108;-71
2022/08/05 07:59:55;;;;;;;10.50;6.00;;;17.20;97.50;;;;;;5025959;28;20040;-71
2022/08/05 08:02:25;;;;;;;12.30;5.88;;;17.40;97.60;;;;;;5021617;28;20048;-71
2022/08/05 08:04:51;;;;;;;11.10;5.53;;;17.50;97.60;;;;;;5019091;28;20164;-71
2022/08/05 08:07:17;;;;;;;9.27;4.60;;;17.30;97.10;;;;;;5018456;28;20442;-71
2022/08/05 08:09:43;;;;;;;8.45;4.72;;;17.40;96.90;;;;;;5022979;28;20449;-71
2022/08/05 08:12:08;;;;;;;7.78;4.93;;;17.50;97.00;;;;;;5021612;28;20033;-71
2022/08/05 08:14:34;;;;;;;10.35;5.30;;;17.60;96.90;;;;;;5023686;28;20025;-71
2022/08/05 08:16:59;;;;;;;8.90;4.63;;;17.60;97.00;;;;;;5024693;28;20038;-71
2022/08/05 08:19:25;;;;;;;7.13;4.03;;;17.50;96.60;;;;;;5022133;28;20037;-71
2022/08/05 08:21:50;;;;;;;7.75;4.00;;;17.60;96.50;;;;;;5014241;28;20038;-71
2022/08/05 08:24:16;;;;;;;6.85;3.80;;;17.40;96.20;;;;;;5023623;28;20030;-70
2022/08/05 08:26:41;;;;;;;9.50;4.15;;;17.20;95.70;;;;;;5020311;28;20072;-71
2022/08/05 08:29:07;;;;;;;9.88;4.03;;;17.40;96.10;;;;;;5017174;28;20171;-71
2022/08/05 08:31:32;;;;;;;8.57;4.38;;;17.40;95.90;;;;;;5025156;28;20033;-71
2022/08/05 08:33:58;;;;;;;5.68;4.22;;;17.30;95.20;;;;;;5019391;28;20021;-71
2022/08/05 08:36:23;;;;;;;8.40;4.07;;;17.30;95.40;;;;;;5017201;28;20036;-71
2022/08/05 08:38:49;;;;;;;8.23;4.03;;;17.20;95.20;;;;;;5023505;28;20069;-71
2022/08/05 08:41:15;;;;;;;7.82;4.20;;;17.30;95.70;;;;;;5024186;28;20030;-77
2022/08/05 08:43:43;;;;;;;6.03;3.75;;;17.40;96.10;;;;;;5024885;28;20037;-71
2022/08/05 08:46:09;;;;;;;8.23;4.20;;;17.30;95.80;;;;;;5017960;28;20026;-71
2022/08/05 08:48:34;;;;;;;7.05;4.40;;;17.20;95.30;;;;;;5015903;28;20025;-71
2022/08/05 08:51:02;;;;;;;7.53;4.07;;;17.30;95.80;;;;;;5022518;28;20300;-70
2022/08/05 08:53:35;;;;;;;6.78;4.07;;;17.10;95.50;;;;;;5019200;28;20073;-71
2022/08/05 08:56:03;;;;;;;8.25;5.25;;;17.20;96.00;;;;;;5025412;28;20123;-71
2022/08/05 08:58:29;;;;;;;6.57;4.43;;;17.30;96.30;;;;;;5022682;28;20059;-71
2022/08/05 09:00:55;;;;;;;8.02;4.13;;;17.30;96.30;;;;;;5012999;28;20087;-70
2022/08/05 09:03:21;;;;;;;8.73;3.88;;;17.10;95.10;;;;;;5026330;28;20041;-72
2022/08/05 09:05:47;;;;;;;10.52;3.83;;;17.10;95.20;;;;;;5021524;28;20079;-70
2022/08/05 09:08:12;;;;;;;7.65;4.50;;;17.20;95.20;;;;;;5032874;28;20022;-70
2022/08/05 09:10:40;;;;;;;6.03;3.42;;;17.40;95.70;;;;;;5029896;28;20048;-70
2022/08/05 09:13:06;;;;;;;4.57;2.88;;;17.20;94.80;;;;;;5025514;28;20033;-70
2022/08/05 09:15:32;;;;;;;6.60;3.25;;;17.30;94.70;;;;;;5027276;28;20034;-70
2022/08/05 09:17:58;;;;;;;5.03;2.47;;;17.10;94.20;;;;;;5027214;28;21968;-70
2022/08/05 09:20:23;;;;;;;6.95;2.72;;;17.10;94.00;;;;;;5030971;28;20056;-70
2022/08/05 09:23:06;;;;;;;7.15;3.45;;;17.00;94.40;;;;;;5029828;28;20032;-69
2022/08/05 09:25:32;;;;;;;6.05;3.05;;;17.10;94.80;;;;;;5027256;28;20034;-70
2022/08/05 09:28:11;;;;;;;7.50;3.03;;;17.00;94.60;;;;;;5032662;28;20397;-69
2022/08/05 09:30:40;;;;;;;7.88;3.35;;;17.10;95.00;;;;;;5030329;28;20036;-70
2022/08/05 09:33:06;;;;;;;8.02;3.45;;;17.10;95.10;;;;;;5030262;28;20323;-70
2022/08/05 09:35:31;;;;;;;6.15;3.50;;;17.20;95.40;;;;;;5019128;28;20032;-70
2022/08/05 09:37:57;;;;;;;6.70;3.90;;;17.10;95.50;;;;;;5029915;28;20068;-69
2022/08/05 09:40:33;;;;;;;7.70;4.20;;;17.10;95.70;;;;;;5029785;28;20053;-69
2022/08/05 09:43:00;;;;;;;6.78;4.25;;;17.00;95.50;;;;;;5030281;28;20036;-70
2022/08/05 09:45:43;;;;;;;9.52;4.57;;;17.10;95.90;;;;;;5027695;28;20037;-69
2022/08/05 09:48:26;;;;;;;7.90;4.93;;;17.10;96.10;;;;;;5014495;28;20026;-69
2022/08/05 09:51:03;;;;;;;9.77;4.65;;;17.10;96.10;;;;;;5026747;28;20017;-69
2022/08/05 09:53:44;;;;;;;8.52;4.97;;;17.00;96.10;;;;;;5029274;28;20025;-69
2022/08/05 09:56:10;;;;;;;;;;;17.00;96.10;;;;;;5030554;28;20350;-70
2022/08/05 09:58:35;;;;;;;9.50;4.30;;;17.00;96.10;;;;;;5031728;28;19913;-70
2022/08/05 10:01:05;;;;;;;9.25;5.10;;;17.00;96.10;;;;;;5031959;28;20047;-70
2022/08/05 10:03:32;;;;;;;9.57;5.07;;;16.90;96.00;;;;;;5027502;28;20033;-70
2022/08/05 10:06:08;;;;;;;9.35;5.72;;;17.00;96.30;;;;;;5027916;28;20104;-70
2022/08/05 10:08:37;;;;;;;10.35;5.03;;;17.10;96.40;;;;;;5024795;28;20025;-70
2022/08/05 10:11:12;;;;;;;11.02;5.63;;;17.00;96.10;;;;;;5032159;28;20026;-70
2022/08/05 10:13:38;;;;;;;8.60;5.13;;;17.00;96.20;;;;;;5030982;28;20046;-70
2022/08/05 10:16:05;;;;;;;8.50;5.25;;;17.00;96.10;;;;;;5032168;28;20477;-71
2022/08/05 10:18:31;;;;;;;11.45;5.20;;;16.90;96.10;;;;;;5027894;28;20392;-70
2022/08/05 10:21:03;;;;;;;8.88;5.35;;;16.90;95.90;;;;;;5027536;28;20033;-70
2022/08/05 10:23:34;;;;;;;8.45;4.65;;;16.80;96.00;;;;;;5019602;28;20088;-70
2022/08/05 10:26:02;;;;;;;6.65;4.90;;;16.90;96.30;;;;;;5027691;28;20025;-70
2022/08/05 10:28:29;;;;;;;11.38;5.25;;;16.90;96.30;;;;;;5030914;28;20037;-70
2022/08/05 10:30:56;;;;;;;7.70;5.03;;;17.00;96.60;;;;;;5031984;28;20499;-70
2022/08/05 10:33:24;;;;;;;8.70;5.22;;;17.00;96.70;;;;;;5030190;28;20029;-70
2022/08/05 10:35:50;;;;;;;7.65;5.15;;;17.10;96.80;;;;;;5026902;28;20059;-70
2022/08/05 10:38:18;;;;;;;8.90;5.00;;;17.40;97.00;;;;;;5028766;28;20096;-70
2022/08/05 10:40:53;;;;;;;6.75;4.10;;;17.40;96.30;;;;;;5024401;28;20429;-70
2022/08/05 10:44:12;;;;;;;9.00;4.43;;;17.30;96.20;;;;;;5022604;28;20030;-70
2022/08/05 10:46:49;;;;;;;10.02;4.53;;;17.20;95.60;;;;;;5017172;28;20448;-70
2022/08/05 10:49:15;;;;;;;8.60;4.43;;;17.20;95.60;;;;;;5017652;28;20029;-70
2022/08/05 10:51:46;;;;;;;7.00;4.53;;;17.20;95.70;;;;;;5016795;28;20108;-70
2022/08/05 10:54:13;;;;;;;8.57;4.50;;;17.30;96.10;;;;;;5015032;28;20955;-70
2022/08/05 10:56:54;;;;;;;7.72;4.60;;;17.30;95.90;;;;;;5016912;28;20540;-70
2022/08/05 10:59:31;;;;;;;7.55;5.30;;;17.10;96.00;;;;;;5017647;28;20037;-70
2022/08/05 11:02:10;;;;;;;7.95;4.93;;;17.10;96.10;;;;;;5018819;28;20029;-70
2022/08/05 11:04:47;;;;;;;11.07;5.50;;;17.00;95.90;;;;;;5017371;28;20156;-70
2022/08/05 11:07:17;;;;;;;11.45;5.95;;;17.00;96.30;;;;;;5013778;28;20028;-70
2022/08/05 11:09:52;;;;;;;9.25;5.93;;;17.00;96.40;;;;;;5021420;28;20485;-69
2022/08/05 11:12:33;;;;;;;9.02;5.45;;;16.80;96.30;;;;;;5019811;28;20117;-70
2022/08/05 11:15:15;;;;;;;12.75;5.53;;;16.90;96.60;;;;;;5026815;28;20033;-70
2022/08/05 11:17:41;;;;;;;10.75;5.43;;;16.80;96.80;;;;;;5020653;28;20067;-70
2022/08/05 11:20:31;;;;;;;8.13;5.65;;;16.80;96.90;;;;;;5021713;28;20542;-70
2022/08/05 11:22:57;;;;;;;7.70;5.47;;;16.80;97.10;;;;;;5023141;28;20061;-71
2022/08/05 11:25:44;;;;;;;9.45;5.40;;;16.90;97.20;;;;;;5029022;28;20057;-71
2022/08/05 11:28:13;;;;;;;8.98;5.65;;;16.90;97.10;;;;;;5020279;28;20075;-71
2022/08/05 11:30:57;;;;;;;10.73;6.35;;;17.00;97.20;;;;;;5026983;28;20025;-71
2022/08/05 11:33:31;;;;;;;11.93;5.85;;;17.00;97.00;;;;;;5019611;28;20044;-70
2022/08/05 11:35:59;;;;;;;7.80;5.13;;;16.90;96.90;;;;;;5027788;28;20491;-70
2022/08/05 11:38:43;;;;;;;8.23;5.30;;;17.00;96.80;;;;;;5026975;28;20041;-70
2022/08/05 11:41:30;;;;;;;9.52;5.45;;;17.10;97.20;;;;;;5021517;28;20026;-71
2022/08/05 11:44:14;;;;;;;7.72;5.10;;;17.10;97.10;;;;;;5020760;28;20452;-71
2022/08/05 11:46:51;;;;;;;7.55;4.22;;;17.10;96.90;;;;;;5017984;28;20036;-71
2022/08/05 11:49:19;;;;;;;9.68;3.97;;;17.20;96.50;;;;;;5027516;28;20021;-70
2022/08/05 11:51:46;;;;;;;6.82;4.20;;;17.30;96.70;;;;;;5026177;28;20022;-70
2022/08/05 11:54:14;;;;;;;7.53;4.55;;;17.50;96.70;;;;;;5027879;28;20041;-70
2022/08/05 11:56:47;;;;;;;5.35;2.88;;;17.50;96.50;;;;;;5022046;28;20053;-70
2022/08/05 11:59:21;;;;;;;5.15;2.90;;;17.40;94.90;;;;;;5022968;28;20384;-70
2022/08/05 12:02:00;;;;;;;6.53;2.65;;;17.60;95.20;;;;;;5014265;28;20389;-71
2022/08/05 12:04:36;;;;;;;5.35;2.80;;;17.90;95.40;;;;;;5023517;28;20407;-71
2022/08/05 12:07:03;;;;;;;4.70;2.13;;;18.00;95.00;;;;;;5028069;28;20025;-71
2022/08/05 12:09:34;;;;;;;3.75;2.00;;;17.90;93.30;;;;;;5026168;28;20400;-71
2022/08/05 12:12:00;;;;;;;4.43;1.98;;;18.10;93.00;;;;;;5028111;28;20029;-71
2022/08/05 12:14:38;;;;;;;3.10;1.95;;;18.80;92.30;;;;;;5025162;28;20025;-71
2022/08/05 12:17:07;;;;;;;7.70;2.35;;;19.10;92.20;;;;;;5023588;28;20091;-70
2022/08/05 12:19:44;;;;;;;5.43;2.40;;;19.00;91.40;;;;;;5023773;28;20026;-70
2022/08/05 12:22:11;;;;;;;4.47;2.30;;;18.90;89.60;;;;;;5020293;28;20037;-71
2022/08/05 12:24:49;;;;;;;5.03;2.53;;;18.70;90.70;;;;;;5016730;28;20033;-70
2022/08/05 12:27:30;;;;;;;5.25;2.35;;;18.60;90.80;;;;;;5025138;28;20025;-71
2022/08/05 12:30:07;;;;;;;5.72;2.70;;;18.60;90.50;;;;;;5023198;28;20077;-71
2022/08/05 12:32:41;;;;;;;5.43;2.33;;;18.50;89.70;;;;;;5015212;28;20539;-70
2022/08/05 12:35:08;;;;;;;4.25;2.53;;;18.80;90.30;;;;;;5038768;28;20125;-70
2022/08/05 12:37:34;;;;;;;3.58;2.20;;;18.80;89.80;;;;;;5027090;28;20409;-71
2022/08/05 12:40:00;;;;;;;3.95;2.17;;;19.00;90.00;;;;;;5027365;28;20369;-71
2022/08/05 12:42:28;;;;;;;4.00;2.15;;;19.50;90.70;;;;;;5022076;28;20084;-71
2022/08/05 12:45:02;;;;;;;4.38;2.22;;;19.80;90.10;;;;;;5025641;28;20104;-71
2022/08/05 12:47:29;;;;;;;3.35;1.98;;;19.60;87.70;;;;;;5018302;28;20053;-71
2022/08/05 12:49:54;;;;;;;3.40;1.90;;;19.50;86.70;;;;;;5031399;28;20025;-71
2022/08/05 12:52:20;;;;;;;4.90;2.45;;;19.60;87.40;;;;;;5029169;28;20523;-71
2022/08/05 12:54:50;;;;;;;3.92;2.30;;;19.90;85.70;;;;;;5031048;28;20092;-71